sensor_id;sensor_type;location;lat;lon;timestamp;temperature;humidity
13172;DHT22;6651;53.200;10.432;2023-09-30T00:00:58;13.90;99.90
13172;DHT22;6651;53.200;10.432;2023-09-30T00:03:24;13.90;99.90
13172;DHT22;6651;53.200;10.432;2023-09-30T00:05:50;13.90;99.90
13172;DHT22;6651;53.200;10.432;2023-09-30T00:08:15;13.80;99.90
13172;DHT22;6651;53.200;10.432;2023-09-30T00:10:41;13.90;99.90
13172;DHT22;6651;53.200;10.432;2023-09-30T00:13:07;13.90;99.90
13172;DHT22;6651;53.200;10.432;2023-09-30T00:15:33;13.90;99.90
13172;DHT22;6651;53.200;10.432;2023-09-30T00:17:59;13.90;99.90
13172;DHT22;6651;53.200;10.432;2023-09-30T00:20:24;13.90;99.90
13172;DHT22;6651;53.200;10.432;2023-09-30T00:22:50;13.90;99.90
13172;DHT22;6651;53.200;10.432;2023-09-30T00:25:16;13.80;99.90
13172;DHT22;6651;53.200;10.432;2023-09-30T00:27:41;13.80;99.90
13172;DHT22;6651;53.200;10.432;2023-09-30T00:30:07;13.70;99.90
13172;DHT22;6651;53.200;10.432;2023-09-30T00:32:33;13.80;99.90
13172;DHT22;6651;53.200;10.432;2023-09-30T00:35:01;13.80;99.90
13172;DHT22;6651;53.200;10.432;2023-09-30T00:37:27;13.80;99.90
13172;DHT22;6651;53.200;10.432;2023-09-30T00:39:53;13.90;99.90
13172;DHT22;6651;53.200;10.432;2023-09-30T00:42:18;13.80;99.90
13172;DHT22;6651;53.200;10.432;2023-09-30T00:44:46;13.70;99.90
13172;DHT22;6651;53.200;10.432;2023-09-30T00:47:13;13.70;99.90
13172;DHT22;6651;53.200;10.432;2023-09-30T00:49:40;13.60;99.90
13172;DHT22;6651;53.200;10.432;2023-09-30T00:52:09;13.70;99.90
13172;DHT22;6651;53.200;10.432;2023-09-30T00:54:35;13.60;99.90
13172;DHT22;6651;53.200;10.432;2023-09-30T00:57:03;13.60;99.90
13172;DHT22;6651;53.200;10.432;2023-09-30T00:59:30;13.50;99.90
13172;DHT22;6651;53.200;10.432;2023-09-30T01:01:58;13.50;99.90
13172;DHT22;6651;53.200;10.432;2023-09-30T01:04:27;13.60;99.90
13172;DHT22;6651;53.200;10.432;2023-09-30T01:09:19;13.50;99.90
13172;DHT22;6651;53.200;10.432;2023-09-30T01:11:45;13.30;99.90
13172;DHT22;6651;53.200;10.432;2023-09-30T01:14:27;13.30;99.90
13172;DHT22;6651;53.200;10.432;2023-09-30T01:16:54;13.30;99.90
13172;DHT22;6651;53.200;10.432;2023-09-30T01:19:20;13.30;99.90
13172;DHT22;6651;53.200;10.432;2023-09-30T01:21:46;13.30;99.90
13172;DHT22;6651;53.200;10.432;2023-09-30T01:24:14;13.40;99.90
13172;DHT22;6651;53.200;10.432;2023-09-30T01:26:40;13.30;99.90
13172;DHT22;6651;53.200;10.432;2023-09-30T01:29:08;13.30;99.90
13172;DHT22;6651;53.200;10.432;2023-09-30T01:31:37;13.30;99.90
13172;DHT22;6651;53.200;10.432;2023-09-30T01:34:03;13.30;99.90
13172;DHT22;6651;53.200;10.432;2023-09-30T01:36:29;13.20;99.90
13172;DHT22;6651;53.200;10.432;2023-09-30T01:38:55;13.30;99.90
13172;DHT22;6651;53.200;10.432;2023-09-30T01:41:21;13.30;99.90
13172;DHT22;6651;53.200;10.432;2023-09-30T01:46:12;13.20;99.90
13172;DHT22;6651;53.200;10.432;2023-09-30T01:48:38;13.20;99.90
13172;DHT22;6651;53.200;10.432;2023-09-30T01:51:04;13.10;99.90
13172;DHT22;6651;53.200;10.432;2023-09-30T01:53:30;13.10;99.90
13172;DHT22;6651;53.200;10.432;2023-09-30T01:55:55;13.10;99.90
13172;DHT22;6651;53.200;10.432;2023-09-30T01:58:21;13.10;99.90
13172;DHT22;6651;53.200;10.432;2023-09-30T02:00:46;13.00;99.90
13172;DHT22;6651;53.200;10.432;2023-09-30T02:03:12;13.00;99.90
13172;DHT22;6651;53.200;10.432;2023-09-30T02:05:41;13.00;99.90
13172;DHT22;6651;53.200;10.432;2023-09-30T02:08:06;13.00;99.90
13172;DHT22;6651;53.200;10.432;2023-09-30T02:10:32;13.00;99.90
13172;DHT22;6651;53.200;10.432;2023-09-30T02:12:59;13.00;99.90
13172;DHT22;6651;53.200;10.432;2023-09-30T02:15:25;13.00;99.90
13172;DHT22;6651;53.200;10.432;2023-09-30T02:17:51;13.10;99.90
13172;DHT22;6651;53.200;10.432;2023-09-30T02:20:17;13.10;99.90
13172;DHT22;6651;53.200;10.432;2023-09-30T02:22:47;13.00;99.90
13172;DHT22;6651;53.200;10.432;2023-09-30T02:25:13;12.90;99.90
13172;DHT22;6651;53.200;10.432;2023-09-30T02:27:40;12.90;99.90
13172;DHT22;6651;53.200;10.432;2023-09-30T02:30:08;13.00;99.90
13172;DHT22;6651;53.200;10.432;2023-09-30T02:32:34;13.00;99.90
13172;DHT22;6651;53.200;10.432;2023-09-30T02:35:00;13.00;99.90
13172;DHT22;6651;53.200;10.432;2023-09-30T02:37:25;12.90;99.90
13172;DHT22;6651;53.200;10.432;2023-09-30T02:39:51;12.80;99.90
13172;DHT22;6651;53.200;10.432;2023-09-30T02:42:17;12.80;99.90
13172;DHT22;6651;53.200;10.432;2023-09-30T02:44:42;12.70;99.90
13172;DHT22;6651;53.200;10.432;2023-09-30T02:47:08;12.60;99.90
13172;DHT22;6651;53.200;10.432;2023-09-30T02:49:34;12.70;99.90
13172;DHT22;6651;53.200;10.432;2023-09-30T02:52:00;12.70;99.90
13172;DHT22;6651;53.200;10.432;2023-09-30T02:54:26;12.70;99.90
13172;DHT22;6651;53.200;10.432;2023-09-30T02:56:52;12.70;99.90
13172;DHT22;6651;53.200;10.432;2023-09-30T02:59:20;12.70;99.90
13172;DHT22;6651;53.200;10.432;2023-09-30T03:01:47;12.70;99.90
13172;DHT22;6651;53.200;10.432;2023-09-30T03:04:13;12.60;99.90
13172;DHT22;6651;53.200;10.432;2023-09-30T03:06:39;12.60;99.90
13172;DHT22;6651;53.200;10.432;2023-09-30T03:09:05;12.60;99.90
13172;DHT22;6651;53.200;10.432;2023-09-30T03:11:31;12.60;99.90
13172;DHT22;6651;53.200;10.432;2023-09-30T03:13:57;12.60;99.90
13172;DHT22;6651;53.200;10.432;2023-09-30T03:16:24;12.60;99.90
13172;DHT22;6651;53.200;10.432;2023-09-30T03:18:50;12.50;99.90
13172;DHT22;6651;53.200;10.432;2023-09-30T03:21:16;12.50;99.90
13172;DHT22;6651;53.200;10.432;2023-09-30T03:23:43;12.50;99.90
13172;DHT22;6651;53.200;10.432;2023-09-30T03:26:09;12.50;99.90
13172;DHT22;6651;53.200;10.432;2023-09-30T03:28:38;12.50;99.90
13172;DHT22;6651;53.200;10.432;2023-09-30T03:31:05;12.50;99.90
13172;DHT22;6651;53.200;10.432;2023-09-30T03:33:32;12.50;99.90
13172;DHT22;6651;53.200;10.432;2023-09-30T03:35:58;12.40;99.90
13172;DHT22;6651;53.200;10.432;2023-09-30T03:38:25;12.40;99.90
13172;DHT22;6651;53.200;10.432;2023-09-30T03:40:51;12.50;99.90
13172;DHT22;6651;53.200;10.432;2023-09-30T03:43:19;12.40;99.90
13172;DHT22;6651;53.200;10.432;2023-09-30T03:45:46;12.40;99.90
13172;DHT22;6651;53.200;10.432;2023-09-30T03:48:12;12.40;99.90
13172;DHT22;6651;53.200;10.432;2023-09-30T03:50:37;12.30;99.90
13172;DHT22;6651;53.200;10.432;2023-09-30T03:53:04;12.30;99.90
13172;DHT22;6651;53.200;10.432;2023-09-30T03:55:33;12.30;99.90
13172;DHT22;6651;53.200;10.432;2023-09-30T03:57:59;12.40;99.90
13172;DHT22;6651;53.200;10.432;2023-09-30T04:00:25;12.40;99.90
13172;DHT22;6651;53.200;10.432;2023-09-30T04:02:51;12.30;99.90
13172;DHT22;6651;53.200;10.432;2023-09-30T04:05:23;12.30;99.90
13172;DHT22;6651;53.200;10.432;2023-09-30T04:07:54;12.20;99.90
13172;DHT22;6651;53.200;10.432;2023-09-30T04:10:20;12.20;99.90
13172;DHT22;6651;53.200;10.432;2023-09-30T04:12:48;12.20;99.90
13172;DHT22;6651;53.200;10.432;2023-09-30T04:15:13;12.20;99.90
13172;DHT22;6651;53.200;10.432;2023-09-30T04:17:39;12.30;99.90
13172;DHT22;6651;53.200;10.432;2023-09-30T04:20:08;12.20;99.90
13172;DHT22;6651;53.200;10.432;2023-09-30T04:22:36;12.30;99.90
13172;DHT22;6651;53.200;10.432;2023-09-30T04:25:03;12.30;99.90
13172;DHT22;6651;53.200;10.432;2023-09-30T04:27:34;12.30;99.90
13172;DHT22;6651;53.200;10.432;2023-09-30T04:29:59;12.30;99.90
13172;DHT22;6651;53.200;10.432;2023-09-30T04:32:25;12.30;99.90
13172;DHT22;6651;53.200;10.432;2023-09-30T04:34:52;12.30;99.90
13172;DHT22;6651;53.200;10.432;2023-09-30T04:37:18;12.20;99.90
13172;DHT22;6651;53.200;10.432;2023-09-30T04:39:44;12.30;99.90
13172;DHT22;6651;53.200;10.432;2023-09-30T04:42:10;12.30;99.90
13172;DHT22;6651;53.200;10.432;2023-09-30T04:44:37;12.30;99.90
13172;DHT22;6651;53.200;10.432;2023-09-30T04:47:04;12.30;99.90
13172;DHT22;6651;53.200;10.432;2023-09-30T04:49:30;12.30;99.90
13172;DHT22;6651;53.200;10.432;2023-09-30T04:51:56;12.30;99.90
13172;DHT22;6651;53.200;10.432;2023-09-30T04:54:22;12.30;99.90
13172;DHT22;6651;53.200;10.432;2023-09-30T04:56:47;12.30;99.90
13172;DHT22;6651;53.200;10.432;2023-09-30T04:59:13;12.20;99.90
13172;DHT22;6651;53.200;10.432;2023-09-30T05:01:39;12.20;99.90
13172;DHT22;6651;53.200;10.432;2023-09-30T05:04:05;12.30;99.90
13172;DHT22;6651;53.200;10.432;2023-09-30T05:06:31;12.30;99.90
13172;DHT22;6651;53.200;10.432;2023-09-30T05:08:58;12.30;99.90
13172;DHT22;6651;53.200;10.432;2023-09-30T05:11:24;12.30;99.90
13172;DHT22;6651;53.200;10.432;2023-09-30T05:13:50;12.20;99.90
13172;DHT22;6651;53.200;10.432;2023-09-30T05:16:17;12.20;99.90
13172;DHT22;6651;53.200;10.432;2023-09-30T05:18:43;12.20;99.90
13172;DHT22;6651;53.200;10.432;2023-09-30T05:21:09;12.10;99.90
13172;DHT22;6651;53.200;10.432;2023-09-30T05:23:36;12.20;99.90
13172;DHT22;6651;53.200;10.432;2023-09-30T05:26:02;12.20;99.90
13172;DHT22;6651;53.200;10.432;2023-09-30T05:28:28;12.20;99.90
13172;DHT22;6651;53.200;10.432;2023-09-30T05:30:53;12.20;99.90
13172;DHT22;6651;53.200;10.432;2023-09-30T05:33:19;12.20;99.90
13172;DHT22;6651;53.200;10.432;2023-09-30T05:35:45;12.20;99.90
13172;DHT22;6651;53.200;10.432;2023-09-30T05:38:11;12.10;99.90
13172;DHT22;6651;53.200;10.432;2023-09-30T05:40:38;12.10;99.90
13172;DHT22;6651;53.200;10.432;2023-09-30T05:43:04;12.10;99.90
13172;DHT22;6651;53.200;10.432;2023-09-30T05:45:32;12.10;99.90
13172;DHT22;6651;53.200;10.432;2023-09-30T05:48:04;12.10;99.90
13172;DHT22;6651;53.200;10.432;2023-09-30T05:50:33;12.20;99.90
13172;DHT22;6651;53.200;10.432;2023-09-30T05:52:59;12.20;99.90
13172;DHT22;6651;53.200;10.432;2023-09-30T05:55:25;12.20;99.90
13172;DHT22;6651;53.200;10.432;2023-09-30T05:57:51;12.20;99.90
13172;DHT22;6651;53.200;10.432;2023-09-30T06:00:20;12.20;99.90
13172;DHT22;6651;53.200;10.432;2023-09-30T06:02:50;12.30;99.90
13172;DHT22;6651;53.200;10.432;2023-09-30T06:05:17;12.40;99.90
13172;DHT22;6651;53.200;10.432;2023-09-30T06:07:47;12.30;99.90
13172;DHT22;6651;53.200;10.432;2023-09-30T06:10:13;12.40;99.90
13172;DHT22;6651;53.200;10.432;2023-09-30T06:12:45;12.40;99.90
13172;DHT22;6651;53.200;10.432;2023-09-30T06:15:12;12.40;99.90
13172;DHT22;6651;53.200;10.432;2023-09-30T06:17:39;12.50;99.90
13172;DHT22;6651;53.200;10.432;2023-09-30T06:20:05;12.50;99.90
13172;DHT22;6651;53.200;10.432;2023-09-30T06:22:42;12.60;99.90
13172;DHT22;6651;53.200;10.432;2023-09-30T06:25:09;12.50;99.90
13172;DHT22;6651;53.200;10.432;2023-09-30T06:27:34;12.60;99.90
13172;DHT22;6651;53.200;10.432;2023-09-30T06:30:00;12.60;99.90
13172;DHT22;6651;53.200;10.432;2023-09-30T06:32:25;12.60;99.90
13172;DHT22;6651;53.200;10.432;2023-09-30T06:34:52;12.60;99.90
13172;DHT22;6651;53.200;10.432;2023-09-30T06:37:18;12.60;99.90
13172;DHT22;6651;53.200;10.432;2023-09-30T06:39:44;12.80;99.90
13172;DHT22;6651;53.200;10.432;2023-09-30T06:42:09;12.80;99.90
13172;DHT22;6651;53.200;10.432;2023-09-30T06:44:35;12.80;99.90
13172;DHT22;6651;53.200;10.432;2023-09-30T06:47:00;12.80;99.90
13172;DHT22;6651;53.200;10.432;2023-09-30T06:49:26;12.80;99.90
13172;DHT22;6651;53.200;10.432;2023-09-30T06:51:52;12.80;99.90
13172;DHT22;6651;53.200;10.432;2023-09-30T06:54:17;12.80;99.90
13172;DHT22;6651;53.200;10.432;2023-09-30T06:56:43;12.90;99.90
13172;DHT22;6651;53.200;10.432;2023-09-30T06:59:09;12.90;99.90
13172;DHT22;6651;53.200;10.432;2023-09-30T07:01:34;13.00;99.90
13172;DHT22;6651;53.200;10.432;2023-09-30T07:04:00;13.10;99.90
13172;DHT22;6651;53.200;10.432;2023-09-30T07:06:26;13.30;99.90
13172;DHT22;6651;53.200;10.432;2023-09-30T07:08:52;13.40;99.90
13172;DHT22;6651;53.200;10.432;2023-09-30T07:11:28;13.60;99.90
13172;DHT22;6651;53.200;10.432;2023-09-30T07:13:54;13.80;99.90
13172;DHT22;6651;53.200;10.432;2023-09-30T07:16:20;14.00;99.90
13172;DHT22;6651;53.200;10.432;2023-09-30T07:18:45;14.10;99.90
13172;DHT22;6651;53.200;10.432;2023-09-30T07:21:12;14.30;99.90
13172;DHT22;6651;53.200;10.432;2023-09-30T07:23:38;14.40;99.90
13172;DHT22;6651;53.200;10.432;2023-09-30T07:26:03;14.60;99.90
13172;DHT22;6651;53.200;10.432;2023-09-30T07:28:29;14.70;99.90
13172;DHT22;6651;53.200;10.432;2023-09-30T07:30:55;14.90;99.90
13172;DHT22;6651;53.200;10.432;2023-09-30T07:33:21;15.10;99.90
13172;DHT22;6651;53.200;10.432;2023-09-30T07:35:47;15.30;99.90
13172;DHT22;6651;53.200;10.432;2023-09-30T07:38:12;15.40;99.90
13172;DHT22;6651;53.200;10.432;2023-09-30T07:40:38;15.40;99.90
13172;DHT22;6651;53.200;10.432;2023-09-30T07:43:04;15.50;99.90
13172;DHT22;6651;53.200;10.432;2023-09-30T07:45:30;15.50;99.90
13172;DHT22;6651;53.200;10.432;2023-09-30T07:47:56;15.70;99.90
13172;DHT22;6651;53.200;10.432;2023-09-30T07:50:24;15.90;99.90
13172;DHT22;6651;53.200;10.432;2023-09-30T07:52:49;15.90;99.90
13172;DHT22;6651;53.200;10.432;2023-09-30T07:55:15;16.00;99.90
13172;DHT22;6651;53.200;10.432;2023-09-30T07:57:42;16.00;99.90
13172;DHT22;6651;53.200;10.432;2023-09-30T08:00:09;16.20;99.90
13172;DHT22;6651;53.200;10.432;2023-09-30T08:02:40;16.40;99.90
13172;DHT22;6651;53.200;10.432;2023-09-30T08:05:07;16.50;99.90
13172;DHT22;6651;53.200;10.432;2023-09-30T08:07:33;16.60;99.90
13172;DHT22;6651;53.200;10.432;2023-09-30T08:09:59;16.60;99.90
13172;DHT22;6651;53.200;10.432;2023-09-30T08:12:25;16.60;99.90
13172;DHT22;6651;53.200;10.432;2023-09-30T08:14:50;16.60;99.90
13172;DHT22;6651;53.200;10.432;2023-09-30T08:17:17;16.70;99.90
13172;DHT22;6651;53.200;10.432;2023-09-30T08:19:44;16.80;99.90
13172;DHT22;6651;53.200;10.432;2023-09-30T08:22:09;16.90;99.90
13172;DHT22;6651;53.200;10.432;2023-09-30T08:24:35;17.00;99.90
13172;DHT22;6651;53.200;10.432;2023-09-30T08:27:01;17.10;99.90
13172;DHT22;6651;53.200;10.432;2023-09-30T08:29:27;17.20;99.90
13172;DHT22;6651;53.200;10.432;2023-09-30T08:31:52;17.00;99.90
13172;DHT22;6651;53.200;10.432;2023-09-30T08:34:18;17.00;99.90
13172;DHT22;6651;53.200;10.432;2023-09-30T08:36:46;17.00;99.90
13172;DHT22;6651;53.200;10.432;2023-09-30T08:39:12;17.10;99.90
13172;DHT22;6651;53.200;10.432;2023-09-30T08:41:38;17.30;99.90
13172;DHT22;6651;53.200;10.432;2023-09-30T08:44:04;17.40;99.90
13172;DHT22;6651;53.200;10.432;2023-09-30T08:46:34;17.40;99.90
13172;DHT22;6651;53.200;10.432;2023-09-30T08:49:04;17.40;99.90
13172;DHT22;6651;53.200;10.432;2023-09-30T08:51:31;17.60;99.90
13172;DHT22;6651;53.200;10.432;2023-09-30T08:53:58;17.80;99.90
13172;DHT22;6651;53.200;10.432;2023-09-30T08:56:29;17.80;99.90
13172;DHT22;6651;53.200;10.432;2023-09-30T08:58:57;17.70;99.90
13172;DHT22;6651;53.200;10.432;2023-09-30T09:01:25;17.80;99.90
13172;DHT22;6651;53.200;10.432;2023-09-30T09:03:50;17.90;99.90
13172;DHT22;6651;53.200;10.432;2023-09-30T09:06:20;18.00;99.90
13172;DHT22;6651;53.200;10.432;2023-09-30T09:08:46;18.00;99.90
13172;DHT22;6651;53.200;10.432;2023-09-30T09:11:12;18.00;99.90
13172;DHT22;6651;53.200;10.432;2023-09-30T09:13:57;18.00;99.90
13172;DHT22;6651;53.200;10.432;2023-09-30T09:16:25;18.00;99.90
13172;DHT22;6651;53.200;10.432;2023-09-30T09:18:51;18.10;99.90
13172;DHT22;6651;53.200;10.432;2023-09-30T09:21:18;18.20;99.90
13172;DHT22;6651;53.200;10.432;2023-09-30T09:23:50;18.20;99.90
13172;DHT22;6651;53.200;10.432;2023-09-30T09:26:25;18.40;99.90
13172;DHT22;6651;53.200;10.432;2023-09-30T09:29:03;18.50;99.90
13172;DHT22;6651;53.200;10.432;2023-09-30T09:31:34;18.70;99.90
13172;DHT22;6651;53.200;10.432;2023-09-30T09:34:02;18.80;99.90
13172;DHT22;6651;53.200;10.432;2023-09-30T09:36:39;18.90;99.90
13172;DHT22;6651;53.200;10.432;2023-09-30T09:39:06;19.10;99.90
13172;DHT22;6651;53.200;10.432;2023-09-30T09:41:32;19.10;99.90
13172;DHT22;6651;53.200;10.432;2023-09-30T09:43:59;19.00;99.90
13172;DHT22;6651;53.200;10.432;2023-09-30T09:46:27;19.10;99.90
13172;DHT22;6651;53.200;10.432;2023-09-30T09:48:53;19.10;99.90
13172;DHT22;6651;53.200;10.432;2023-09-30T09:51:20;19.00;99.90
13172;DHT22;6651;53.200;10.432;2023-09-30T09:53:48;19.00;99.90
13172;DHT22;6651;53.200;10.432;2023-09-30T09:56:15;19.00;99.90
13172;DHT22;6651;53.200;10.432;2023-09-30T09:58:42;19.10;99.90
13172;DHT22;6651;53.200;10.432;2023-09-30T10:01:09;19.10;99.90
13172;DHT22;6651;53.200;10.432;2023-09-30T10:03:38;19.20;99.90
13172;DHT22;6651;53.200;10.432;2023-09-30T10:06:04;19.30;99.90
13172;DHT22;6651;53.200;10.432;2023-09-30T10:08:49;19.30;99.90
13172;DHT22;6651;53.200;10.432;2023-09-30T10:11:20;19.40;99.90
13172;DHT22;6651;53.200;10.432;2023-09-30T10:13:57;19.60;99.90
13172;DHT22;6651;53.200;10.432;2023-09-30T10:19:11;19.70;99.90
13172;DHT22;6651;53.200;10.432;2023-09-30T10:21:37;19.60;99.90
13172;DHT22;6651;53.200;10.432;2023-09-30T10:40:48;20.10;99.90
13172;DHT22;6651;53.200;10.432;2023-09-30T10:43:34;20.00;99.90
13172;DHT22;6651;53.200;10.432;2023-09-30T10:48:46;19.90;99.90
13172;DHT22;6651;53.200;10.432;2023-09-30T10:51:15;19.60;99.90
13172;DHT22;6651;53.200;10.432;2023-09-30T10:53:43;19.60;99.90
13172;DHT22;6651;53.200;10.432;2023-09-30T10:56:08;19.70;99.90
13172;DHT22;6651;53.200;10.432;2023-09-30T10:58:44;19.80;99.90
13172;DHT22;6651;53.200;10.432;2023-09-30T11:01:11;19.90;99.90
13172;DHT22;6651;53.200;10.432;2023-09-30T11:03:36;19.90;99.90
13172;DHT22;6651;53.200;10.432;2023-09-30T11:06:02;20.00;99.90
13172;DHT22;6651;53.200;10.432;2023-09-30T11:08:29;20.00;99.90
13172;DHT22;6651;53.200;10.432;2023-09-30T11:10:55;19.90;99.90
13172;DHT22;6651;53.200;10.432;2023-09-30T11:13:22;20.00;99.90
13172;DHT22;6651;53.200;10.432;2023-09-30T11:15:47;19.90;99.90
13172;DHT22;6651;53.200;10.432;2023-09-30T11:18:24;20.00;99.90
13172;DHT22;6651;53.200;10.432;2023-09-30T11:20:50;20.00;99.90
13172;DHT22;6651;53.200;10.432;2023-09-30T11:23:16;20.10;99.90
13172;DHT22;6651;53.200;10.432;2023-09-30T11:25:41;20.30;99.90
13172;DHT22;6651;53.200;10.432;2023-09-30T11:30:59;20.20;99.90
13172;DHT22;6651;53.200;10.432;2023-09-30T11:33:25;20.10;99.90
13172;DHT22;6651;53.200;10.432;2023-09-30T11:36:04;20.00;99.90
13172;DHT22;6651;53.200;10.432;2023-09-30T11:38:34;20.20;99.90
13172;DHT22;6651;53.200;10.432;2023-09-30T11:41:05;20.40;99.90
13172;DHT22;6651;53.200;10.432;2023-09-30T11:43:33;20.30;99.90
13172;DHT22;6651;53.200;10.432;2023-09-30T11:48:31;20.40;99.90
13172;DHT22;6651;53.200;10.432;2023-09-30T11:50:59;20.40;99.90
13172;DHT22;6651;53.200;10.432;2023-09-30T11:53:31;20.30;99.90
13172;DHT22;6651;53.200;10.432;2023-09-30T11:55:58;20.30;99.90
13172;DHT22;6651;53.200;10.432;2023-09-30T11:58:28;20.30;99.90
13172;DHT22;6651;53.200;10.432;2023-09-30T12:00:54;20.30;99.90
13172;DHT22;6651;53.200;10.432;2023-09-30T12:03:20;20.30;99.90
13172;DHT22;6651;53.200;10.432;2023-09-30T12:05:47;20.20;99.90
13172;DHT22;6651;53.200;10.432;2023-09-30T12:08:13;20.20;99.90
13172;DHT22;6651;53.200;10.432;2023-09-30T12:10:40;20.30;99.90
13172;DHT22;6651;53.200;10.432;2023-09-30T12:13:05;20.10;99.90
13172;DHT22;6651;53.200;10.432;2023-09-30T12:15:31;20.10;99.90
13172;DHT22;6651;53.200;10.432;2023-09-30T12:17:57;20.30;99.90
13172;DHT22;6651;53.200;10.432;2023-09-30T12:20:23;20.30;99.90
13172;DHT22;6651;53.200;10.432;2023-09-30T12:22:49;20.30;99.90
13172;DHT22;6651;53.200;10.432;2023-09-30T12:25:17;20.30;99.90
13172;DHT22;6651;53.200;10.432;2023-09-30T12:27:44;20.30;99.90
13172;DHT22;6651;53.200;10.432;2023-09-30T12:30:11;20.30;99.90
13172;DHT22;6651;53.200;10.432;2023-09-30T12:32:39;20.30;99.90
13172;DHT22;6651;53.200;10.432;2023-09-30T12:35:05;20.20;99.90
13172;DHT22;6651;53.200;10.432;2023-09-30T12:37:31;20.30;99.90
13172;DHT22;6651;53.200;10.432;2023-09-30T12:39:58;20.20;99.90
13172;DHT22;6651;53.200;10.432;2023-09-30T12:42:23;20.20;99.90
13172;DHT22;6651;53.200;10.432;2023-09-30T12:44:50;20.20;99.90
13172;DHT22;6651;53.200;10.432;2023-09-30T12:47:15;20.00;99.90
13172;DHT22;6651;53.200;10.432;2023-09-30T12:49:41;20.10;99.90
13172;DHT22;6651;53.200;10.432;2023-09-30T12:52:07;20.00;99.90
13172;DHT22;6651;53.200;10.432;2023-09-30T12:54:32;20.00;99.90
13172;DHT22;6651;53.200;10.432;2023-09-30T12:56:59;20.00;99.90
13172;DHT22;6651;53.200;10.432;2023-09-30T12:59:25;20.10;99.90
13172;DHT22;6651;53.200;10.432;2023-09-30T13:01:51;20.10;99.90
13172;DHT22;6651;53.200;10.432;2023-09-30T13:04:17;20.10;99.90
13172;DHT22;6651;53.200;10.432;2023-09-30T13:06:44;20.10;99.90
13172;DHT22;6651;53.200;10.432;2023-09-30T13:09:10;19.90;99.90
13172;DHT22;6651;53.200;10.432;2023-09-30T13:11:37;19.90;99.90
13172;DHT22;6651;53.200;10.432;2023-09-30T13:14:03;19.80;99.90
13172;DHT22;6651;53.200;10.432;2023-09-30T13:16:29;19.80;99.90
13172;DHT22;6651;53.200;10.432;2023-09-30T13:18:55;19.90;99.90
13172;DHT22;6651;53.200;10.432;2023-09-30T13:21:20;20.00;99.90
13172;DHT22;6651;53.200;10.432;2023-09-30T13:23:46;20.00;99.90
13172;DHT22;6651;53.200;10.432;2023-09-30T13:26:12;20.00;99.90
13172;DHT22;6651;53.200;10.432;2023-09-30T13:28:37;20.00;99.90
13172;DHT22;6651;53.200;10.432;2023-09-30T13:31:03;19.90;99.90
13172;DHT22;6651;53.200;10.432;2023-09-30T13:33:29;19.90;99.90
13172;DHT22;6651;53.200;10.432;2023-09-30T13:35:54;20.00;99.90
13172;DHT22;6651;53.200;10.432;2023-09-30T13:38:21;19.90;99.90
13172;DHT22;6651;53.200;10.432;2023-09-30T13:40:46;19.80;99.90
13172;DHT22;6651;53.200;10.432;2023-09-30T13:43:12;19.80;99.90
13172;DHT22;6651;53.200;10.432;2023-09-30T13:45:38;19.80;99.90
13172;DHT22;6651;53.200;10.432;2023-09-30T13:48:04;19.80;99.90
13172;DHT22;6651;53.200;10.432;2023-09-30T13:50:30;19.80;99.90
13172;DHT22;6651;53.200;10.432;2023-09-30T13:52:55;19.70;99.90
13172;DHT22;6651;53.200;10.432;2023-09-30T13:55:21;19.70;99.90
13172;DHT22;6651;53.200;10.432;2023-09-30T13:57:47;19.50;99.90
13172;DHT22;6651;53.200;10.432;2023-09-30T14:00:13;19.40;99.90
13172;DHT22;6651;53.200;10.432;2023-09-30T14:02:39;19.30;99.90
13172;DHT22;6651;53.200;10.432;2023-09-30T14:05:06;19.30;99.90
13172;DHT22;6651;53.200;10.432;2023-09-30T14:07:37;19.30;99.90
13172;DHT22;6651;53.200;10.432;2023-09-30T14:10:06;19.30;99.90
13172;DHT22;6651;53.200;10.432;2023-09-30T14:12:31;19.30;99.90
13172;DHT22;6651;53.200;10.432;2023-09-30T14:14:57;19.20;99.90
13172;DHT22;6651;53.200;10.432;2023-09-30T14:17:23;19.20;99.90
13172;DHT22;6651;53.200;10.432;2023-09-30T14:19:48;19.20;99.90
13172;DHT22;6651;53.200;10.432;2023-09-30T14:22:15;19.20;99.90
13172;DHT22;6651;53.200;10.432;2023-09-30T14:24:40;19.20;99.90
13172;DHT22;6651;53.200;10.432;2023-09-30T14:27:06;19.20;99.90
13172;DHT22;6651;53.200;10.432;2023-09-30T14:29:32;19.20;99.90
13172;DHT22;6651;53.200;10.432;2023-09-30T14:31:58;19.20;99.90
13172;DHT22;6651;53.200;10.432;2023-09-30T14:34:24;19.20;99.90
13172;DHT22;6651;53.200;10.432;2023-09-30T14:36:50;19.20;99.90
13172;DHT22;6651;53.200;10.432;2023-09-30T14:39:17;19.20;99.90
13172;DHT22;6651;53.200;10.432;2023-09-30T14:41:43;19.30;99.90
13172;DHT22;6651;53.200;10.432;2023-09-30T14:44:09;19.30;99.90
13172;DHT22;6651;53.200;10.432;2023-09-30T14:46:37;19.20;99.90
13172;DHT22;6651;53.200;10.432;2023-09-30T14:49:04;19.10;99.90
13172;DHT22;6651;53.200;10.432;2023-09-30T14:51:31;19.10;99.90
13172;DHT22;6651;53.200;10.432;2023-09-30T14:53:57;19.00;99.90
13172;DHT22;6651;53.200;10.432;2023-09-30T14:56:23;19.00;99.90
13172;DHT22;6651;53.200;10.432;2023-09-30T14:58:48;19.00;99.90
13172;DHT22;6651;53.200;10.432;2023-09-30T15:01:14;18.90;99.90
13172;DHT22;6651;53.200;10.432;2023-09-30T15:03:40;18.80;99.90
13172;DHT22;6651;53.200;10.432;2023-09-30T15:06:06;18.80;99.90
13172;DHT22;6651;53.200;10.432;2023-09-30T15:08:32;18.70;99.90
13172;DHT22;6651;53.200;10.432;2023-09-30T15:11:02;18.80;99.90
13172;DHT22;6651;53.200;10.432;2023-09-30T15:13:28;18.80;99.90
13172;DHT22;6651;53.200;10.432;2023-09-30T15:15:55;18.80;99.90
13172;DHT22;6651;53.200;10.432;2023-09-30T15:18:21;18.70;99.90
13172;DHT22;6651;53.200;10.432;2023-09-30T15:20:49;18.70;99.90
13172;DHT22;6651;53.200;10.432;2023-09-30T15:23:14;18.60;99.90
13172;DHT22;6651;53.200;10.432;2023-09-30T15:25:43;18.60;99.90
13172;DHT22;6651;53.200;10.432;2023-09-30T15:28:13;18.60;99.90
13172;DHT22;6651;53.200;10.432;2023-09-30T15:30:39;18.50;99.90
13172;DHT22;6651;53.200;10.432;2023-09-30T15:33:05;18.40;99.90
13172;DHT22;6651;53.200;10.432;2023-09-30T15:35:30;18.50;99.90
13172;DHT22;6651;53.200;10.432;2023-09-30T15:37:57;18.40;99.90
13172;DHT22;6651;53.200;10.432;2023-09-30T15:40:23;18.40;99.90
13172;DHT22;6651;53.200;10.432;2023-09-30T15:42:49;18.30;99.90
13172;DHT22;6651;53.200;10.432;2023-09-30T15:45:15;18.30;99.90
13172;DHT22;6651;53.200;10.432;2023-09-30T15:47:43;18.30;99.90
13172;DHT22;6651;53.200;10.432;2023-09-30T15:50:10;18.20;99.90
13172;DHT22;6651;53.200;10.432;2023-09-30T15:52:36;18.20;99.90
13172;DHT22;6651;53.200;10.432;2023-09-30T15:55:02;18.30;99.90
13172;DHT22;6651;53.200;10.432;2023-09-30T15:57:28;18.20;99.90
13172;DHT22;6651;53.200;10.432;2023-09-30T15:59:53;18.20;99.90